createdAt,value
2018-03-21T00:01:32.578Z,80.30
2018-03-21T00:03:59.155Z,80.50
2018-03-21T00:06:25.638Z,80.10
2018-03-21T00:08:52.123Z,79.80
2018-03-21T00:11:18.599Z,80.50
2018-03-21T00:13:45.819Z,78.60
2018-03-21T00:16:12.306Z,78.60
2018-03-21T00:18:38.799Z,78.80
2018-03-21T00:21:05.292Z,78.60
2018-03-21T00:23:31.795Z,79.50
2018-03-21T00:25:59.045Z,79.40
2018-03-21T00:28:26.318Z,79.60
2018-03-21T00:30:52.816Z,79.50
2018-03-21T00:33:20.076Z,79.90
2018-03-21T00:35:46.579Z,80.50
2018-03-21T00:38:13.082Z,81.50
2018-03-21T00:40:39.596Z,80.40
2018-03-21T00:43:06.139Z,80.60
2018-03-21T00:45:32.643Z,80.90
2018-03-21T00:47:59.186Z,80.80
2018-03-21T00:50:26.406Z,80.80
2018-03-21T00:52:53.637Z,81.30
2018-03-21T00:55:20.114Z,81.30
2018-03-21T00:57:46.595Z,81.30
2018-03-21T01:00:13.129Z,81.30
2018-03-21T01:02:39.622Z,82.50
2018-03-21T01:05:06.081Z,81.00
2018-03-21T01:07:33.303Z,80.70
2018-03-21T01:09:59.791Z,80.70
2018-03-21T01:12:26.298Z,82.00
2018-03-21T01:14:52.782Z,81.60
2018-03-21T01:17:19.306Z,80.70
2018-03-21T01:19:45.774Z,80.10
2018-03-21T01:22:12.240Z,80.00
2018-03-21T01:24:39.464Z,81.20
2018-03-21T01:27:05.969Z,81.10
2018-03-21T01:29:32.450Z,80.80
2018-03-21T01:31:59.684Z,81.30
2018-03-21T01:34:26.186Z,81.30
2018-03-21T01:36:52.735Z,80.70
2018-03-21T01:39:19.850Z,81.50
2018-03-21T01:41:46.348Z,82.60
2018-03-21T01:44:13.587Z,82.80
2018-03-21T01:46:40.062Z,82.80
2018-03-21T01:49:06.534Z,83.70
2018-03-21T01:51:33.367Z,82.80
2018-03-21T01:53:59.877Z,82.60
2018-03-21T01:56:26.401Z,83.80
2018-03-21T01:58:52.868Z,82.30
2018-03-21T02:01:19.374Z,82.60
2018-03-21T02:03:45.850Z,82.50
2018-03-21T02:06:12.337Z,82.30
2018-03-21T02:08:39.580Z,81.90
2018-03-21T02:11:06.052Z,81.90
2018-03-21T02:13:32.584Z,79.20
2018-03-21T02:15:59.115Z,80.10
2018-03-21T02:18:25.587Z,80.50
2018-03-21T02:20:52.066Z,80.50
2018-03-21T02:23:18.574Z,81.50
2018-03-21T02:25:45.091Z,80.20
2018-03-21T02:28:11.571Z,80.40
2018-03-21T02:30:38.104Z,80.70
2018-03-21T02:33:05.581Z,81.20
2018-03-21T02:35:32.055Z,81.60
2018-03-21T02:37:58.564Z,82.10
2018-03-21T02:40:25.073Z,81.50
2018-03-21T02:42:51.605Z,82.50
2018-03-21T02:45:18.139Z,80.90
2018-03-21T02:47:44.695Z,81.20
2018-03-21T02:50:11.216Z,82.00
2018-03-21T02:52:37.703Z,82.20
2018-03-21T02:55:04.183Z,82.30
2018-03-21T02:57:30.721Z,82.60
2018-03-21T02:59:57.249Z,81.10
2018-03-21T03:02:23.788Z,81.60
2018-03-21T03:04:50.285Z,81.70
2018-03-21T03:07:16.788Z,81.70
2018-03-21T03:09:43.289Z,83.00
2018-03-21T03:12:09.771Z,81.70
2018-03-21T03:14:36.258Z,82.40
2018-03-21T03:17:03.206Z,81.60
2018-03-21T03:19:29.691Z,82.90
2018-03-21T03:21:56.178Z,81.00
2018-03-21T03:24:22.653Z,81.60
2018-03-21T03:26:49.189Z,81.60
2018-03-21T03:29:16.407Z,82.00
2018-03-21T03:31:42.967Z,82.00
2018-03-21T03:34:09.458Z,82.10
2018-03-21T03:36:35.949Z,82.20
2018-03-21T03:39:02.571Z,81.90
2018-03-21T03:41:29.102Z,82.80
2018-03-21T03:43:55.645Z,81.80
2018-03-21T03:46:22.135Z,81.80
2018-03-21T03:48:48.736Z,81.90
2018-03-21T03:51:15.279Z,81.90
2018-03-21T03:53:41.744Z,82.30
2018-03-21T03:56:09.548Z,82.10
2018-03-21T03:58:36.033Z,82.10
2018-03-21T04:01:03.266Z,82.00
2018-03-21T04:03:30.498Z,82.20
2018-03-21T04:05:56.994Z,82.20
2018-03-21T04:08:23.506Z,82.60
2018-03-21T04:10:50.071Z,83.20
2018-03-21T04:13:16.594Z,83.60
2018-03-21T04:15:43.073Z,83.70
2018-03-21T04:18:09.545Z,83.10
2018-03-21T04:20:36.082Z,82.50
2018-03-21T04:23:02.546Z,82.80
2018-03-21T04:25:29.086Z,82.70
2018-03-21T04:27:55.605Z,83.30
2018-03-21T04:30:22.090Z,83.50
2018-03-21T04:32:48.575Z,82.30
2018-03-21T04:35:15.083Z,82.40
2018-03-21T04:37:41.579Z,82.50
2018-03-21T04:40:08.061Z,83.10
2018-03-21T04:42:35.290Z,83.00
2018-03-21T04:45:01.768Z,82.80
2018-03-21T04:47:28.281Z,82.70
2018-03-21T04:49:55.585Z,83.20
2018-03-21T04:52:22.062Z,83.10
2018-03-21T04:54:48.599Z,83.50
2018-03-21T04:57:15.407Z,83.80
2018-03-21T04:59:41.899Z,83.60
2018-03-21T05:02:08.421Z,83.50
2018-03-21T05:04:35.702Z,83.90
2018-03-21T05:07:02.205Z,83.70
2018-03-21T05:09:28.737Z,83.80
2018-03-21T05:11:55.254Z,83.40
2018-03-21T05:14:21.777Z,83.40
2018-03-21T05:16:48.262Z,83.50
2018-03-21T05:19:14.826Z,84.40
2018-03-21T05:21:41.334Z,82.50
2018-03-21T05:24:07.844Z,82.50
2018-03-21T05:26:34.333Z,82.40
2018-03-21T05:29:00.836Z,82.60
2018-03-21T05:31:27.366Z,82.70
2018-03-21T05:33:54.593Z,84.10
2018-03-21T05:36:21.454Z,84.00
2018-03-21T05:38:48.767Z,84.30
2018-03-21T05:41:15.371Z,84.10
2018-03-21T05:43:42.589Z,84.70
2018-03-21T05:46:09.822Z,84.70
2018-03-21T05:48:36.308Z,85.40
2018-03-21T05:51:03.678Z,85.60
2018-03-21T05:53:30.145Z,82.30
2018-03-21T05:55:56.691Z,82.20
2018-03-21T05:58:23.162Z,83.10
2018-03-21T06:00:49.662Z,83.10
2018-03-21T06:03:16.250Z,83.60
2018-03-21T06:05:42.804Z,83.70
2018-03-21T06:08:09.324Z,83.60
2018-03-21T06:10:35.817Z,83.20
2018-03-21T06:13:03.038Z,82.70
2018-03-21T06:15:30.265Z,82.70
2018-03-21T06:17:56.762Z,82.70
2018-03-21T06:20:24.004Z,82.20
2018-03-21T06:22:50.483Z,82.20
2018-03-21T06:25:16.972Z,80.80
2018-03-21T06:27:43.446Z,81.00
2018-03-21T06:30:09.924Z,80.90
2018-03-21T06:32:36.413Z,80.50
2018-03-21T06:35:02.920Z,79.10
2018-03-21T06:37:30.169Z,79.10
2018-03-21T06:39:57.284Z,79.10
2018-03-21T06:42:24.548Z,77.80
2018-03-21T06:44:51.098Z,77.90
2018-03-21T06:47:17.647Z,77.30
2018-03-21T06:49:44.134Z,74.10
2018-03-21T06:52:10.665Z,73.60
2018-03-21T06:54:37.168Z,72.70
2018-03-21T06:57:03.662Z,72.00
2018-03-21T06:59:30.138Z,71.80
2018-03-21T07:01:56.622Z,69.30
2018-03-21T07:04:23.106Z,67.10
2018-03-21T07:06:49.668Z,66.10
2018-03-21T07:09:16.205Z,66.60
2018-03-21T07:11:42.692Z,63.80
2018-03-21T07:14:22.062Z,59.50
2018-03-21T07:16:48.526Z,59.50
2018-03-21T07:19:15.734Z,56.90
2018-03-21T07:21:42.231Z,56.80
2018-03-21T07:24:08.794Z,54.80
2018-03-21T07:26:35.324Z,54.30
2018-03-21T07:29:01.834Z,53.70
2018-03-21T07:31:28.423Z,52.40
2018-03-21T07:33:54.900Z,50.70
2018-03-21T07:36:22.124Z,49.20
2018-03-21T07:38:48.602Z,48.90
2018-03-21T07:41:15.082Z,47.40
2018-03-21T07:43:41.555Z,47.90
2018-03-21T07:46:08.018Z,48.70
2018-03-21T07:48:35.311Z,47.10
2018-03-21T07:51:01.804Z,47.00
2018-03-21T07:53:29.117Z,47.30
2018-03-21T07:55:55.625Z,47.00
2018-03-21T07:58:32.845Z,45.40
2018-03-21T08:00:59.363Z,46.50
2018-03-21T08:03:25.861Z,44.90
2018-03-21T08:05:52.626Z,42.20
2018-03-21T08:08:19.166Z,42.20
2018-03-21T08:10:45.693Z,42.00
2018-03-21T08:13:12.202Z,41.10
2018-03-21T08:15:38.751Z,41.00
2018-03-21T08:18:05.550Z,40.00
2018-03-21T08:20:32.059Z,37.60
2018-03-21T08:22:58.556Z,39.00
2018-03-21T08:25:25.049Z,38.60
2018-03-21T08:27:51.513Z,36.30
2018-03-21T08:30:18.751Z,36.20
2018-03-21T08:32:45.564Z,36.20
2018-03-21T08:35:12.058Z,35.80
2018-03-21T08:37:38.572Z,36.40
2018-03-21T08:40:05.081Z,36.90
2018-03-21T08:42:31.548Z,37.30
2018-03-21T08:44:58.810Z,40.40
2018-03-21T08:47:26.234Z,40.30
2018-03-21T08:49:52.776Z,39.40
2018-03-21T08:52:19.241Z,39.60
2018-03-21T08:54:45.720Z,39.80
2018-03-21T08:57:12.212Z,38.50
2018-03-21T08:59:38.715Z,40.30
2018-03-21T09:02:05.246Z,40.40
2018-03-21T09:04:31.726Z,39.40
2018-03-21T09:06:58.206Z,40.80
2018-03-21T09:09:24.698Z,38.40
2018-03-21T09:11:51.211Z,39.80
2018-03-21T09:14:18.520Z,38.40
2018-03-21T09:16:45.027Z,38.40
2018-03-21T09:19:11.562Z,36.70
2018-03-21T09:21:38.089Z,36.90
2018-03-21T09:24:04.597Z,37.70
2018-03-21T09:26:31.847Z,41.40
2018-03-21T09:28:59.099Z,40.10
2018-03-21T09:31:26.327Z,39.20
2018-03-21T09:33:52.824Z,39.10
2018-03-21T09:36:19.295Z,40.30
2018-03-21T09:38:45.763Z,39.50
2018-03-21T09:41:12.338Z,41.10
2018-03-21T09:43:38.827Z,40.90
2018-03-21T09:46:06.070Z,41.60
2018-03-21T09:48:32.588Z,41.60
2018-03-21T09:50:59.855Z,40.80
2018-03-21T09:53:26.357Z,40.80
2018-03-21T09:55:52.867Z,41.60
2018-03-21T09:58:19.344Z,42.30
2018-03-21T10:00:45.843Z,42.90
2018-03-21T10:03:12.343Z,41.90
2018-03-21T10:05:38.833Z,42.30
2018-03-21T10:08:05.360Z,41.80
2018-03-21T10:10:31.862Z,42.30
2018-03-21T10:12:58.405Z,42.40
2018-03-21T10:15:24.916Z,43.70
2018-03-21T10:17:51.432Z,41.60
2018-03-21T10:20:17.910Z,41.60
2018-03-21T10:22:44.391Z,41.80
2018-03-21T10:25:10.880Z,41.30
2018-03-21T10:27:37.370Z,42.70
2018-03-21T10:30:03.873Z,41.80
2018-03-21T10:32:30.383Z,41.60
2018-03-21T10:34:56.881Z,39.10
2018-03-21T10:37:23.394Z,40.90
2018-03-21T10:39:49.902Z,41.20
2018-03-21T10:42:16.374Z,39.50
2018-03-21T10:44:42.926Z,40.30
2018-03-21T10:47:09.483Z,40.40
2018-03-21T10:49:36.026Z,39.70
2018-03-21T10:52:02.566Z,40.00
2018-03-21T10:54:29.065Z,40.40
2018-03-21T10:56:55.552Z,38.10
2018-03-21T10:59:22.027Z,39.10
2018-03-21T11:01:54.535Z,39.40
2018-03-21T11:04:21.042Z,40.20
2018-03-21T11:06:47.526Z,43.60
2018-03-21T11:09:14.005Z,39.80
2018-03-21T11:11:41.060Z,38.70
2018-03-21T11:14:07.583Z,38.80
2018-03-21T11:16:34.067Z,40.40
2018-03-21T11:19:00.556Z,39.00
2018-03-21T11:21:27.025Z,39.30
2018-03-21T11:23:53.510Z,37.80
2018-03-21T11:26:19.992Z,39.50
2018-03-21T11:28:46.484Z,37.70
2018-03-21T11:31:12.958Z,37.10
2018-03-21T11:33:40.170Z,35.10
2018-03-21T11:36:06.655Z,35.10
2018-03-21T11:38:33.140Z,37.00
2018-03-21T11:40:59.617Z,38.10
2018-03-21T11:43:26.123Z,40.30
2018-03-21T11:45:52.620Z,34.00
2018-03-21T11:48:19.142Z,33.30
2018-03-21T11:50:45.623Z,31.40
2018-03-21T11:53:12.172Z,31.30
2018-03-21T11:55:38.693Z,32.50
2018-03-21T11:58:05.229Z,34.60
2018-03-21T12:00:31.720Z,33.50
2018-03-21T12:02:58.192Z,34.00
2018-03-21T12:05:25.482Z,35.50
2018-03-21T12:07:51.992Z,35.50
2018-03-21T12:10:18.509Z,35.60
2018-03-21T12:12:45.055Z,33.10
2018-03-21T12:15:11.624Z,34.00
2018-03-21T12:17:38.128Z,34.40
2018-03-21T12:20:04.617Z,36.10
2018-03-21T12:22:31.106Z,34.70
2018-03-21T12:24:57.590Z,35.50
2018-03-21T12:27:24.108Z,33.60
2018-03-21T12:29:50.626Z,35.10
2018-03-21T12:32:17.166Z,37.50
2018-03-21T12:34:44.432Z,36.90
2018-03-21T12:37:10.947Z,36.90
2018-03-21T12:39:37.446Z,36.80
2018-03-21T12:42:03.958Z,36.60
2018-03-21T12:44:30.536Z,36.10
2018-03-21T12:46:56.983Z,36.00
2018-03-21T12:49:24.245Z,36.50
2018-03-21T12:51:51.453Z,35.90
2018-03-21T12:54:18.699Z,36.80
2018-03-21T12:56:45.179Z,36.80
2018-03-21T12:59:12.455Z,37.40
2018-03-21T13:01:38.949Z,37.30
2018-03-21T13:04:05.445Z,36.70
2018-03-21T13:06:31.958Z,35.80
2018-03-21T13:08:58.502Z,35.90
2018-03-21T13:11:25.036Z,36.60
2018-03-21T13:13:51.537Z,38.00
2018-03-21T13:16:18.100Z,37.60
2018-03-21T13:18:44.518Z,37.90
2018-03-21T13:21:12.536Z,37.80
2018-03-21T13:23:39.046Z,37.80
2018-03-21T13:26:05.607Z,37.10
2018-03-21T13:28:32.177Z,36.60
2018-03-21T13:30:58.710Z,37.50
2018-03-21T13:33:25.252Z,34.50
2018-03-21T13:35:51.758Z,33.30
2018-03-21T13:38:18.252Z,31.40
2018-03-21T13:40:44.764Z,30.10
2018-03-21T13:43:11.320Z,31.20
2018-03-21T13:45:37.812Z,32.70
2018-03-21T13:48:04.352Z,32.80
2018-03-21T13:50:30.893Z,33.10
2018-03-21T13:52:57.362Z,34.00
2018-03-21T13:55:23.837Z,33.80
2018-03-21T13:57:50.405Z,33.90
2018-03-21T14:00:16.908Z,34.90
2018-03-21T14:02:43.406Z,35.00
2018-03-21T14:05:09.882Z,35.00
2018-03-21T14:07:37.185Z,32.00
2018-03-21T14:10:03.715Z,31.90
2018-03-21T14:12:30.244Z,32.10
2018-03-21T14:14:56.770Z,32.70
2018-03-21T14:17:23.296Z,30.90
2018-03-21T14:19:49.813Z,29.00
2018-03-21T14:22:16.359Z,29.50
2018-03-21T14:24:42.816Z,29.40
2018-03-21T14:27:09.330Z,30.40
2018-03-21T14:29:35.806Z,30.80
2018-03-21T14:32:02.310Z,32.80
2018-03-21T14:34:29.586Z,33.10
2018-03-21T14:36:56.078Z,33.10
2018-03-21T14:39:22.579Z,34.80
2018-03-21T14:41:49.099Z,32.00
2018-03-21T14:44:15.617Z,31.70
2018-03-21T14:46:42.108Z,31.90
2018-03-21T14:49:08.657Z,32.60
2018-03-21T14:51:35.203Z,31.60
2018-03-21T14:54:01.688Z,32.80
2018-03-21T14:56:28.201Z,32.00
2018-03-21T14:58:54.781Z,32.50
2018-03-21T15:01:21.399Z,32.40
2018-03-21T15:03:48.547Z,31.70
2018-03-21T15:06:15.114Z,31.80
2018-03-21T15:08:41.644Z,32.60
2018-03-21T15:11:08.144Z,31.40
2018-03-21T15:13:34.684Z,31.90
2018-03-21T15:16:01.229Z,32.60
2018-03-21T15:18:27.752Z,31.20
2018-03-21T15:20:54.226Z,31.20
2018-03-21T15:23:21.499Z,32.80
2018-03-21T15:25:48.002Z,32.60
2018-03-21T15:28:14.487Z,31.30
2018-03-21T15:30:41.071Z,32.50
2018-03-21T15:33:07.526Z,33.30
2018-03-21T15:35:34.004Z,32.50
2018-03-21T15:38:00.523Z,33.70
2018-03-21T15:40:27.757Z,33.00
2018-03-21T15:42:55.495Z,33.20
2018-03-21T15:45:21.998Z,33.10
2018-03-21T15:47:48.525Z,34.20
2018-03-21T15:50:15.089Z,33.00
2018-03-21T15:52:41.647Z,33.50
2018-03-21T15:55:08.144Z,35.30
2018-03-21T15:57:34.688Z,36.20
2018-03-21T16:00:01.194Z,34.70
2018-03-21T16:02:27.702Z,35.30
2018-03-21T16:04:54.208Z,34.30
2018-03-21T16:07:20.703Z,35.00
2018-03-21T16:09:47.250Z,35.30
2018-03-21T16:12:13.753Z,34.70
2018-03-21T16:14:40.259Z,36.10
2018-03-21T16:17:07.652Z,37.00
2018-03-21T16:19:34.194Z,35.80
2018-03-21T16:22:00.697Z,37.70
2018-03-21T16:24:27.170Z,38.10
2018-03-21T16:26:54.422Z,37.50
2018-03-21T16:29:20.949Z,37.40
2018-03-21T16:31:48.169Z,37.30
2018-03-21T16:34:14.674Z,37.20
2018-03-21T16:36:41.142Z,43.70
2018-03-21T16:39:07.661Z,38.60
2018-03-21T16:41:34.138Z,38.50
2018-03-21T16:44:00.636Z,40.50
2018-03-21T16:46:27.136Z,40.40
2018-03-21T16:48:53.613Z,40.30
2018-03-21T16:51:20.132Z,40.90
2018-03-21T16:53:46.723Z,41.40
2018-03-21T16:56:13.367Z,41.90
2018-03-21T16:58:39.859Z,41.90
2018-03-21T17:01:06.342Z,42.40
2018-03-21T17:03:33.558Z,42.30
2018-03-21T17:06:00.052Z,42.30
2018-03-21T17:08:26.542Z,42.40
2018-03-21T17:10:53.051Z,42.90
2018-03-21T17:13:19.566Z,43.50
2018-03-21T17:15:46.039Z,43.60
2018-03-21T17:18:12.570Z,43.00
2018-03-21T17:20:39.116Z,43.60
2018-03-21T17:23:05.612Z,44.70
2018-03-21T17:25:32.195Z,45.00
2018-03-21T17:27:58.730Z,45.30
2018-03-21T17:30:26.732Z,47.00
2018-03-21T17:32:53.340Z,46.80
2018-03-21T17:35:20.678Z,47.10
2018-03-21T17:37:47.919Z,47.80
2018-03-21T17:40:14.434Z,47.80
2018-03-21T17:42:41.041Z,48.00
2018-03-21T17:45:08.330Z,48.30
2018-03-21T17:47:34.824Z,48.30
2018-03-21T17:50:01.345Z,48.50
2018-03-21T17:52:28.580Z,48.90
2018-03-21T17:54:55.086Z,48.90
2018-03-21T17:57:21.680Z,49.30
2018-03-21T17:59:49.790Z,48.70
2018-03-21T18:02:16.712Z,49.30
2018-03-21T18:04:45.043Z,49.50
2018-03-21T18:07:13.245Z,49.60
2018-03-21T18:09:40.803Z,49.10
2018-03-21T18:12:08.360Z,49.10
2018-03-21T18:14:35.599Z,49.80
2018-03-21T18:17:03.297Z,49.80
2018-03-21T18:19:29.818Z,49.40
2018-03-21T18:21:56.369Z,49.80
2018-03-21T18:24:24.058Z,54.20
2018-03-21T18:26:50.618Z,50.50
2018-03-21T18:29:17.159Z,53.80
2018-03-21T18:31:43.642Z,51.50
2018-03-21T18:34:10.138Z,52.70
2018-03-21T18:36:37.495Z,52.30
2018-03-21T18:39:04.769Z,51.10
2018-03-21T18:41:31.388Z,51.00
2018-03-21T18:43:58.704Z,51.80
2018-03-21T18:46:25.215Z,51.70
2018-03-21T18:48:51.711Z,52.30
2018-03-21T18:51:19.088Z,53.80
2018-03-21T18:53:45.628Z,53.70
2018-03-21T18:56:12.118Z,53.80
2018-03-21T18:58:39.439Z,54.30
2018-03-21T19:01:05.943Z,54.30
2018-03-21T19:03:32.434Z,54.20
2018-03-21T19:05:58.901Z,53.40
2018-03-21T19:08:26.140Z,53.90
2018-03-21T19:10:52.634Z,53.80
2018-03-21T19:13:20.302Z,53.80
2018-03-21T19:15:45.655Z,54.60
2018-03-21T19:18:12.133Z,54.30
2018-03-21T19:20:38.684Z,54.50
2018-03-21T19:23:06.106Z,54.40
2018-03-21T19:25:32.597Z,54.30
2018-03-21T19:27:59.070Z,54.60
2018-03-21T19:30:25.576Z,54.90
2018-03-21T19:32:52.070Z,54.90
2018-03-21T19:35:18.575Z,54.50
2018-03-21T19:37:45.105Z,55.40
2018-03-21T19:40:11.635Z,55.90
2018-03-21T19:42:38.831Z,57.00
2018-03-21T19:45:05.315Z,57.00
2018-03-21T19:47:32.541Z,57.70
2018-03-21T19:49:59.011Z,57.80
2018-03-21T19:52:25.528Z,58.20
2018-03-21T19:54:52.025Z,58.10
2018-03-21T19:57:18.507Z,58.40
2018-03-21T19:59:45.733Z,59.60
2018-03-21T20:02:12.225Z,59.10
2018-03-21T20:04:38.717Z,59.40
2018-03-21T20:07:05.230Z,59.50
2018-03-21T20:09:31.701Z,59.70
2018-03-21T20:11:58.193Z,60.00
2018-03-21T20:14:24.811Z,60.40
2018-03-21T20:16:51.299Z,60.70
2018-03-21T20:19:17.984Z,60.40
2018-03-21T20:21:44.545Z,61.00
2018-03-21T20:24:11.164Z,61.60
2018-03-21T20:26:37.746Z,61.40
2018-03-21T20:29:04.964Z,61.90
2018-03-21T20:31:31.495Z,62.10
2018-03-21T20:33:57.982Z,62.40
2018-03-21T20:36:24.508Z,62.00
2018-03-21T20:38:51.716Z,61.90
2018-03-21T20:41:18.223Z,61.90
2018-03-21T20:43:44.800Z,62.30
2018-03-21T20:46:11.480Z,62.10
2018-03-21T20:48:37.982Z,61.80
2018-03-21T20:51:04.702Z,62.10
2018-03-21T20:53:31.206Z,62.80
2018-03-21T20:55:57.809Z,62.90
2018-03-21T20:58:24.289Z,63.30
2018-03-21T21:00:51.773Z,62.60
2018-03-21T21:03:18.303Z,62.60
2018-03-21T21:05:44.862Z,62.90
2018-03-21T21:08:11.411Z,62.60
2018-03-21T21:10:38.688Z,63.10
2018-03-21T21:13:05.218Z,62.70
2018-03-21T21:15:31.784Z,63.00
2018-03-21T21:17:58.345Z,62.80
2018-03-21T21:20:24.909Z,63.70
2018-03-21T21:22:51.415Z,62.80
2018-03-21T21:25:17.945Z,62.10
2018-03-21T21:27:44.546Z,63.90
2018-03-21T21:30:11.056Z,63.50
2018-03-21T21:32:37.601Z,63.10
2018-03-21T21:35:04.141Z,64.10
2018-03-21T21:37:30.700Z,63.50
2018-03-21T21:39:57.243Z,63.80
2018-03-21T21:42:23.746Z,65.10
2018-03-21T21:44:50.240Z,64.90
2018-03-21T21:47:16.743Z,66.10
2018-03-21T21:49:43.224Z,66.10
2018-03-21T21:52:09.691Z,66.70
2018-03-21T21:54:36.145Z,66.50
2018-03-21T21:57:02.772Z,67.20
2018-03-21T21:59:29.280Z,67.30
2018-03-21T22:01:55.792Z,68.10
2018-03-21T22:04:23.135Z,66.20
2018-03-21T22:06:49.742Z,66.10
2018-03-21T22:09:16.246Z,66.50
2018-03-21T22:11:42.724Z,65.70
2018-03-21T22:14:09.238Z,64.60
2018-03-21T22:16:35.738Z,64.40
2018-03-21T22:19:02.223Z,63.70
2018-03-21T22:21:28.721Z,62.70
2018-03-21T22:23:55.209Z,63.20
2018-03-21T22:26:21.734Z,63.20
2018-03-21T22:28:48.210Z,63.10
2018-03-21T22:31:14.795Z,63.40
2018-03-21T22:33:41.269Z,62.80
2018-03-21T22:36:07.748Z,64.10
2018-03-21T22:38:34.329Z,62.90
2018-03-21T22:41:00.851Z,64.40
2018-03-21T22:43:27.404Z,64.60
2018-03-21T22:45:53.887Z,63.50
2018-03-21T22:48:20.392Z,63.10
2018-03-21T22:50:47.638Z,65.10
2018-03-21T22:53:14.875Z,63.70
2018-03-21T22:55:41.364Z,63.20
2018-03-21T22:58:07.864Z,64.50
2018-03-21T23:00:35.097Z,65.80
2018-03-21T23:03:01.582Z,65.80
2018-03-21T23:05:28.077Z,67.20
2018-03-21T23:07:55.377Z,67.10
2018-03-21T23:10:21.872Z,67.10
2018-03-21T23:12:49.116Z,65.80
2018-03-21T23:15:16.384Z,67.00
2018-03-21T23:17:43.645Z,65.70
2018-03-21T23:20:10.137Z,65.70
2018-03-21T23:22:36.753Z,67.00
2018-03-21T23:25:03.286Z,67.80
2018-03-21T23:27:30.537Z,68.50
2018-03-21T23:29:57.043Z,68.40
2018-03-21T23:32:23.536Z,68.80
2018-03-21T23:34:50.047Z,69.50
2018-03-21T23:37:16.590Z,70.20
2018-03-21T23:39:43.086Z,69.90
2018-03-21T23:42:09.570Z,69.20
2018-03-21T23:44:36.158Z,69.80
2018-03-21T23:47:02.686Z,69.30
2018-03-21T23:49:29.208Z,69.10
2018-03-21T23:51:56.466Z,68.30
2018-03-21T23:54:22.970Z,68.30
2018-03-21T23:56:49.466Z,69.30
2018-03-21T23:59:15.946Z,69.60
